sensor_id;sensor_type;location;lat;lon;timestamp;P1;durP1;ratioP1;P2;durP2;ratioP2
41568;SDS011;27283;52.504;13.358;2023-05-27T00:01:00;24.40;;;4.78;;
41568;SDS011;27283;52.504;13.358;2023-05-27T00:03:34;16.70;;;4.55;;
41568;SDS011;27283;52.504;13.358;2023-05-27T00:06:09;22.30;;;5.18;;
41568;SDS011;27283;52.504;13.358;2023-05-27T00:08:42;21.10;;;4.82;;
41568;SDS011;27283;52.504;13.358;2023-05-27T00:11:14;14.68;;;4.00;;
41568;SDS011;27283;52.504;13.358;2023-05-27T00:13:47;19.17;;;4.70;;
41568;SDS011;27283;52.504;13.358;2023-05-27T00:16:19;14.52;;;4.88;;
41568;SDS011;27283;52.504;13.358;2023-05-27T00:18:52;20.55;;;4.90;;
41568;SDS011;27283;52.504;13.358;2023-05-27T00:21:27;18.40;;;4.68;;
41568;SDS011;27283;52.504;13.358;2023-05-27T00:23:59;18.38;;;4.97;;
41568;SDS011;27283;52.504;13.358;2023-05-27T00:26:33;21.27;;;4.75;;
41568;SDS011;27283;52.504;13.358;2023-05-27T00:29:05;22.15;;;5.18;;
41568;SDS011;27283;52.504;13.358;2023-05-27T00:31:38;22.25;;;5.25;;
41568;SDS011;27283;52.504;13.358;2023-05-27T00:34:10;26.63;;;4.63;;
41568;SDS011;27283;52.504;13.358;2023-05-27T00:36:46;15.05;;;4.55;;
41568;SDS011;27283;52.504;13.358;2023-05-27T00:39:20;22.30;;;4.70;;
41568;SDS011;27283;52.504;13.358;2023-05-27T00:41:54;23.70;;;5.50;;
41568;SDS011;27283;52.504;13.358;2023-05-27T00:44:29;20.65;;;5.40;;
41568;SDS011;27283;52.504;13.358;2023-05-27T00:47:02;17.27;;;4.38;;
41568;SDS011;27283;52.504;13.358;2023-05-27T00:49:34;23.38;;;5.10;;
41568;SDS011;27283;52.504;13.358;2023-05-27T00:52:10;22.90;;;5.25;;
41568;SDS011;27283;52.504;13.358;2023-05-27T00:54:42;23.42;;;4.97;;
41568;SDS011;27283;52.504;13.358;2023-05-27T00:57:15;14.95;;;4.80;;
41568;SDS011;27283;52.504;13.358;2023-05-27T00:59:49;17.50;;;4.78;;
41568;SDS011;27283;52.504;13.358;2023-05-27T01:02:36;17.42;;;4.47;;
41568;SDS011;27283;52.504;13.358;2023-05-27T01:05:31;17.65;;;4.80;;
41568;SDS011;27283;52.504;13.358;2023-05-27T01:08:16;22.48;;;5.25;;
41568;SDS011;27283;52.504;13.358;2023-05-27T01:10:55;20.30;;;5.35;;
41568;SDS011;27283;52.504;13.358;2023-05-27T01:13:31;18.83;;;4.88;;
41568;SDS011;27283;52.504;13.358;2023-05-27T01:16:11;18.13;;;5.35;;
41568;SDS011;27283;52.504;13.358;2023-05-27T01:18:44;20.40;;;5.40;;
41568;SDS011;27283;52.504;13.358;2023-05-27T01:21:21;18.58;;;5.20;;
41568;SDS011;27283;52.504;13.358;2023-05-27T01:24:01;22.48;;;5.18;;
41568;SDS011;27283;52.504;13.358;2023-05-27T01:26:34;22.15;;;5.78;;
41568;SDS011;27283;52.504;13.358;2023-05-27T01:29:07;21.25;;;5.53;;
41568;SDS011;27283;52.504;13.358;2023-05-27T01:31:41;25.88;;;5.80;;
41568;SDS011;27283;52.504;13.358;2023-05-27T01:34:21;18.63;;;5.25;;
41568;SDS011;27283;52.504;13.358;2023-05-27T01:37:01;17.27;;;5.30;;
41568;SDS011;27283;52.504;13.358;2023-05-27T01:39:40;14.82;;;5.30;;
41568;SDS011;27283;52.504;13.358;2023-05-27T01:42:14;19.42;;;5.80;;
41568;SDS011;27283;52.504;13.358;2023-05-27T01:44:47;21.88;;;5.18;;
41568;SDS011;27283;52.504;13.358;2023-05-27T01:47:20;19.00;;;5.47;;
41568;SDS011;27283;52.504;13.358;2023-05-27T01:49:53;20.50;;;5.65;;
41568;SDS011;27283;52.504;13.358;2023-05-27T01:52:25;26.77;;;5.80;;
41568;SDS011;27283;52.504;13.358;2023-05-27T01:55:00;21.80;;;5.07;;
41568;SDS011;27283;52.504;13.358;2023-05-27T01:57:34;17.30;;;5.10;;
41568;SDS011;27283;52.504;13.358;2023-05-27T02:00:06;22.50;;;5.53;;
41568;SDS011;27283;52.504;13.358;2023-05-27T02:02:41;19.80;;;5.43;;
41568;SDS011;27283;52.504;13.358;2023-05-27T02:05:13;18.98;;;5.53;;
41568;SDS011;27283;52.504;13.358;2023-05-27T02:07:45;23.35;;;5.90;;
41568;SDS011;27283;52.504;13.358;2023-05-27T02:10:21;17.95;;;5.28;;
41568;SDS011;27283;52.504;13.358;2023-05-27T02:12:53;24.73;;;5.93;;
41568;SDS011;27283;52.504;13.358;2023-05-27T02:15:25;19.98;;;6.00;;
41568;SDS011;27283;52.504;13.358;2023-05-27T02:17:57;23.55;;;5.38;;
41568;SDS011;27283;52.504;13.358;2023-05-27T02:20:31;18.08;;;5.40;;
41568;SDS011;27283;52.504;13.358;2023-05-27T02:23:05;18.80;;;5.78;;
41568;SDS011;27283;52.504;13.358;2023-05-27T02:25:42;20.65;;;5.80;;
41568;SDS011;27283;52.504;13.358;2023-05-27T02:28:14;20.05;;;5.63;;
41568;SDS011;27283;52.504;13.358;2023-05-27T02:30:46;21.25;;;5.75;;
41568;SDS011;27283;52.504;13.358;2023-05-27T02:33:19;20.45;;;5.78;;
41568;SDS011;27283;52.504;13.358;2023-05-27T02:35:51;26.67;;;5.78;;
41568;SDS011;27283;52.504;13.358;2023-05-27T02:38:23;28.63;;;6.05;;
41568;SDS011;27283;52.504;13.358;2023-05-27T02:40:58;17.33;;;5.68;;
41568;SDS011;27283;52.504;13.358;2023-05-27T02:43:30;26.45;;;5.70;;
41568;SDS011;27283;52.504;13.358;2023-05-27T02:46:03;26.85;;;5.95;;
41568;SDS011;27283;52.504;13.358;2023-05-27T02:48:35;19.65;;;5.32;;
41568;SDS011;27283;52.504;13.358;2023-05-27T02:51:10;24.63;;;6.13;;
41568;SDS011;27283;52.504;13.358;2023-05-27T02:53:41;19.33;;;5.95;;
41568;SDS011;27283;52.504;13.358;2023-05-27T02:56:17;14.30;;;5.38;;
41568;SDS011;27283;52.504;13.358;2023-05-27T02:58:49;22.77;;;5.60;;
41568;SDS011;27283;52.504;13.358;2023-05-27T03:01:21;22.55;;;5.70;;
41568;SDS011;27283;52.504;13.358;2023-05-27T03:03:55;20.00;;;5.55;;
41568;SDS011;27283;52.504;13.358;2023-05-27T03:06:27;20.15;;;5.75;;
41568;SDS011;27283;52.504;13.358;2023-05-27T03:09:00;19.85;;;5.45;;
41568;SDS011;27283;52.504;13.358;2023-05-27T03:11:35;16.90;;;5.80;;
41568;SDS011;27283;52.504;13.358;2023-05-27T03:14:07;22.33;;;6.07;;
41568;SDS011;27283;52.504;13.358;2023-05-27T03:16:39;23.52;;;6.00;;
41568;SDS011;27283;52.504;13.358;2023-05-27T03:19:11;18.83;;;6.00;;
41568;SDS011;27283;52.504;13.358;2023-05-27T03:21:44;24.85;;;6.32;;
41568;SDS011;27283;52.504;13.358;2023-05-27T03:24:17;19.58;;;5.47;;
41568;SDS011;27283;52.504;13.358;2023-05-27T03:26:52;22.23;;;6.00;;
41568;SDS011;27283;52.504;13.358;2023-05-27T03:29:25;23.73;;;5.97;;
41568;SDS011;27283;52.504;13.358;2023-05-27T03:31:59;20.20;;;5.82;;
41568;SDS011;27283;52.504;13.358;2023-05-27T03:34:31;24.42;;;6.20;;
41568;SDS011;27283;52.504;13.358;2023-05-27T03:37:04;26.73;;;6.07;;
41568;SDS011;27283;52.504;13.358;2023-05-27T03:39:37;20.02;;;5.60;;
41568;SDS011;27283;52.504;13.358;2023-05-27T03:42:12;24.15;;;5.35;;
41568;SDS011;27283;52.504;13.358;2023-05-27T03:44:45;28.60;;;5.80;;
41568;SDS011;27283;52.504;13.358;2023-05-27T03:47:18;22.38;;;5.97;;
41568;SDS011;27283;52.504;13.358;2023-05-27T03:49:50;20.42;;;5.40;;
41568;SDS011;27283;52.504;13.358;2023-05-27T03:52:23;20.80;;;6.05;;
41568;SDS011;27283;52.504;13.358;2023-05-27T03:54:56;22.88;;;6.15;;
41568;SDS011;27283;52.504;13.358;2023-05-27T03:57:31;21.70;;;5.57;;
41568;SDS011;27283;52.504;13.358;2023-05-27T04:00:04;18.08;;;5.40;;
41568;SDS011;27283;52.504;13.358;2023-05-27T04:02:40;21.17;;;5.68;;
41568;SDS011;27283;52.504;13.358;2023-05-27T04:05:13;19.83;;;5.88;;
41568;SDS011;27283;52.504;13.358;2023-05-27T04:07:45;22.75;;;6.45;;
41568;SDS011;27283;52.504;13.358;2023-05-27T04:10:18;25.15;;;5.70;;
41568;SDS011;27283;52.504;13.358;2023-05-27T04:12:54;22.15;;;6.00;;
41568;SDS011;27283;52.504;13.358;2023-05-27T04:15:26;23.23;;;5.75;;
41568;SDS011;27283;52.504;13.358;2023-05-27T04:17:59;19.48;;;5.38;;
41568;SDS011;27283;52.504;13.358;2023-05-27T04:20:34;16.75;;;5.22;;
41568;SDS011;27283;52.504;13.358;2023-05-27T04:23:09;22.30;;;6.32;;
41568;SDS011;27283;52.504;13.358;2023-05-27T04:25:41;18.38;;;5.50;;
41568;SDS011;27283;52.504;13.358;2023-05-27T04:28:16;20.55;;;5.28;;
41568;SDS011;27283;52.504;13.358;2023-05-27T04:30:48;20.17;;;5.47;;
41568;SDS011;27283;52.504;13.358;2023-05-27T04:33:22;23.48;;;5.65;;
41568;SDS011;27283;52.504;13.358;2023-05-27T04:35:54;14.75;;;5.22;;
41568;SDS011;27283;52.504;13.358;2023-05-27T04:38:26;24.17;;;5.90;;
41568;SDS011;27283;52.504;13.358;2023-05-27T04:40:59;21.48;;;5.35;;
41568;SDS011;27283;52.504;13.358;2023-05-27T04:43:35;21.13;;;5.55;;
41568;SDS011;27283;52.504;13.358;2023-05-27T04:46:10;18.58;;;5.85;;
41568;SDS011;27283;52.504;13.358;2023-05-27T04:48:42;24.55;;;5.97;;
41568;SDS011;27283;52.504;13.358;2023-05-27T04:51:15;23.23;;;5.75;;
41568;SDS011;27283;52.504;13.358;2023-05-27T04:53:48;21.75;;;5.53;;
41568;SDS011;27283;52.504;13.358;2023-05-27T04:56:20;20.00;;;5.63;;
41568;SDS011;27283;52.504;13.358;2023-05-27T04:58:56;26.08;;;6.38;;
41568;SDS011;27283;52.504;13.358;2023-05-27T05:01:28;24.52;;;5.65;;
41568;SDS011;27283;52.504;13.358;2023-05-27T05:04:18;20.33;;;5.47;;
41568;SDS011;27283;52.504;13.358;2023-05-27T05:06:50;17.45;;;4.95;;
41568;SDS011;27283;52.504;13.358;2023-05-27T05:09:24;22.83;;;5.30;;
41568;SDS011;27283;52.504;13.358;2023-05-27T05:11:56;20.92;;;4.75;;
41568;SDS011;27283;52.504;13.358;2023-05-27T05:14:34;18.05;;;4.35;;
41568;SDS011;27283;52.504;13.358;2023-05-27T05:17:06;16.00;;;4.22;;
41568;SDS011;27283;52.504;13.358;2023-05-27T05:19:39;15.50;;;4.40;;
41568;SDS011;27283;52.504;13.358;2023-05-27T05:22:11;17.48;;;4.85;;
41568;SDS011;27283;52.504;13.358;2023-05-27T05:24:47;15.00;;;4.63;;
41568;SDS011;27283;52.504;13.358;2023-05-27T05:27:19;15.50;;;4.25;;
41568;SDS011;27283;52.504;13.358;2023-05-27T05:29:54;15.48;;;3.95;;
41568;SDS011;27283;52.504;13.358;2023-05-27T05:32:26;16.83;;;4.03;;
41568;SDS011;27283;52.504;13.358;2023-05-27T05:35:11;17.80;;;4.30;;
41568;SDS011;27283;52.504;13.358;2023-05-27T05:37:43;15.73;;;4.60;;
41568;SDS011;27283;52.504;13.358;2023-05-27T05:40:15;14.57;;;4.32;;
41568;SDS011;27283;52.504;13.358;2023-05-27T05:42:47;18.55;;;4.68;;
41568;SDS011;27283;52.504;13.358;2023-05-27T05:45:22;14.70;;;3.83;;
41568;SDS011;27283;52.504;13.358;2023-05-27T05:47:54;16.65;;;3.80;;
41568;SDS011;27283;52.504;13.358;2023-05-27T05:50:26;16.92;;;4.10;;
41568;SDS011;27283;52.504;13.358;2023-05-27T05:52:58;17.30;;;3.80;;
41568;SDS011;27283;52.504;13.358;2023-05-27T05:55:31;18.95;;;3.95;;
41568;SDS011;27283;52.504;13.358;2023-05-27T05:58:02;12.77;;;3.67;;
41568;SDS011;27283;52.504;13.358;2023-05-27T06:00:37;16.52;;;3.72;;
41568;SDS011;27283;52.504;13.358;2023-05-27T06:03:09;14.77;;;3.30;;
41568;SDS011;27283;52.504;13.358;2023-05-27T06:05:42;11.68;;;3.55;;
41568;SDS011;27283;52.504;13.358;2023-05-27T06:08:13;14.70;;;3.50;;
41568;SDS011;27283;52.504;13.358;2023-05-27T06:10:49;10.55;;;3.28;;
41568;SDS011;27283;52.504;13.358;2023-05-27T06:13:22;11.85;;;3.08;;
41568;SDS011;27283;52.504;13.358;2023-05-27T06:15:57;10.65;;;2.70;;
41568;SDS011;27283;52.504;13.358;2023-05-27T06:18:30;11.02;;;2.90;;
41568;SDS011;27283;52.504;13.358;2023-05-27T06:21:02;9.13;;;2.58;;
41568;SDS011;27283;52.504;13.358;2023-05-27T06:23:34;9.68;;;2.60;;
41568;SDS011;27283;52.504;13.358;2023-05-27T06:26:07;7.95;;;2.25;;
41568;SDS011;27283;52.504;13.358;2023-05-27T06:28:40;9.45;;;2.42;;
41568;SDS011;27283;52.504;13.358;2023-05-27T06:31:15;8.27;;;2.00;;
41568;SDS011;27283;52.504;13.358;2023-05-27T06:33:48;7.07;;;1.58;;
41568;SDS011;27283;52.504;13.358;2023-05-27T06:36:43;4.43;;;1.63;;
41568;SDS011;27283;52.504;13.358;2023-05-27T06:39:31;6.40;;;1.80;;
41568;SDS011;27283;52.504;13.358;2023-05-27T06:42:11;6.32;;;1.48;;
41568;SDS011;27283;52.504;13.358;2023-05-27T06:44:43;4.30;;;1.23;;
41568;SDS011;27283;52.504;13.358;2023-05-27T06:47:18;3.30;;;1.50;;
41568;SDS011;27283;52.504;13.358;2023-05-27T06:49:50;5.20;;;1.65;;
41568;SDS011;27283;52.504;13.358;2023-05-27T06:52:31;5.20;;;1.50;;
41568;SDS011;27283;52.504;13.358;2023-05-27T06:55:04;3.25;;;1.30;;
41568;SDS011;27283;52.504;13.358;2023-05-27T06:57:39;7.13;;;1.60;;
41568;SDS011;27283;52.504;13.358;2023-05-27T07:00:12;3.13;;;1.40;;
41568;SDS011;27283;52.504;13.358;2023-05-27T07:02:49;7.82;;;1.45;;
41568;SDS011;27283;52.504;13.358;2023-05-27T07:05:22;4.07;;;1.33;;
41568;SDS011;27283;52.504;13.358;2023-05-27T07:07:55;7.65;;;1.20;;
41568;SDS011;27283;52.504;13.358;2023-05-27T07:10:27;2.97;;;1.27;;
41568;SDS011;27283;52.504;13.358;2023-05-27T07:13:00;6.35;;;1.50;;
41568;SDS011;27283;52.504;13.358;2023-05-27T07:15:33;4.97;;;1.10;;
41568;SDS011;27283;52.504;13.358;2023-05-27T07:18:09;4.50;;;1.20;;
41568;SDS011;27283;52.504;13.358;2023-05-27T07:20:42;3.38;;;1.38;;
41568;SDS011;27283;52.504;13.358;2023-05-27T07:23:15;4.13;;;1.17;;
41568;SDS011;27283;52.504;13.358;2023-05-27T07:25:47;4.20;;;1.08;;
41568;SDS011;27283;52.504;13.358;2023-05-27T07:28:23;4.43;;;1.15;;
41568;SDS011;27283;52.504;13.358;2023-05-27T07:30:55;3.72;;;1.20;;
41568;SDS011;27283;52.504;13.358;2023-05-27T07:33:30;3.45;;;1.23;;
41568;SDS011;27283;52.504;13.358;2023-05-27T07:36:02;8.20;;;1.30;;
41568;SDS011;27283;52.504;13.358;2023-05-27T07:38:34;2.85;;;1.00;;
41568;SDS011;27283;52.504;13.358;2023-05-27T07:41:06;2.67;;;1.13;;
41568;SDS011;27283;52.504;13.358;2023-05-27T07:43:38;2.60;;;1.20;;
41568;SDS011;27283;52.504;13.358;2023-05-27T07:46:10;2.15;;;1.00;;
41568;SDS011;27283;52.504;13.358;2023-05-27T07:48:45;6.13;;;1.17;;
41568;SDS011;27283;52.504;13.358;2023-05-27T07:51:17;2.58;;;0.95;;
41568;SDS011;27283;52.504;13.358;2023-05-27T07:53:50;6.32;;;1.50;;
41568;SDS011;27283;52.504;13.358;2023-05-27T07:56:23;6.65;;;1.77;;
41568;SDS011;27283;52.504;13.358;2023-05-27T07:58:55;4.40;;;1.30;;
41568;SDS011;27283;52.504;13.358;2023-05-27T08:01:28;4.38;;;1.10;;
41568;SDS011;27283;52.504;13.358;2023-05-27T08:04:04;3.72;;;1.40;;
41568;SDS011;27283;52.504;13.358;2023-05-27T08:06:51;5.57;;;1.42;;
41568;SDS011;27283;52.504;13.358;2023-05-27T08:09:23;3.97;;;1.38;;
41568;SDS011;27283;52.504;13.358;2023-05-27T08:11:55;4.10;;;1.20;;
41568;SDS011;27283;52.504;13.358;2023-05-27T08:14:27;2.60;;;0.90;;
41568;SDS011;27283;52.504;13.358;2023-05-27T08:17:00;3.67;;;0.95;;
41568;SDS011;27283;52.504;13.358;2023-05-27T08:19:36;4.43;;;0.98;;
41568;SDS011;27283;52.504;13.358;2023-05-27T08:22:09;2.75;;;1.20;;
41568;SDS011;27283;52.504;13.358;2023-05-27T08:24:41;3.95;;;1.10;;
41568;SDS011;27283;52.504;13.358;2023-05-27T08:27:13;2.95;;;1.00;;
41568;SDS011;27283;52.504;13.358;2023-05-27T08:29:47;2.50;;;0.90;;
41568;SDS011;27283;52.504;13.358;2023-05-27T08:32:18;3.78;;;1.30;;
41568;SDS011;27283;52.504;13.358;2023-05-27T08:34:53;3.20;;;0.98;;
41568;SDS011;27283;52.504;13.358;2023-05-27T08:37:25;2.60;;;1.15;;
41568;SDS011;27283;52.504;13.358;2023-05-27T08:39:58;3.45;;;1.02;;
41568;SDS011;27283;52.504;13.358;2023-05-27T08:42:30;3.05;;;1.00;;
41568;SDS011;27283;52.504;13.358;2023-05-27T08:45:02;4.13;;;1.23;;
41568;SDS011;27283;52.504;13.358;2023-05-27T08:47:34;3.33;;;0.80;;
41568;SDS011;27283;52.504;13.358;2023-05-27T08:50:10;4.35;;;1.00;;
41568;SDS011;27283;52.504;13.358;2023-05-27T08:52:44;2.78;;;1.13;;
41568;SDS011;27283;52.504;13.358;2023-05-27T08:55:19;3.65;;;1.27;;
41568;SDS011;27283;52.504;13.358;2023-05-27T08:57:54;4.40;;;1.30;;
41568;SDS011;27283;52.504;13.358;2023-05-27T09:00:27;3.83;;;1.20;;
41568;SDS011;27283;52.504;13.358;2023-05-27T09:03:00;3.58;;;1.20;;
41568;SDS011;27283;52.504;13.358;2023-05-27T09:05:35;4.57;;;1.13;;
41568;SDS011;27283;52.504;13.358;2023-05-27T09:08:07;3.53;;;1.20;;
41568;SDS011;27283;52.504;13.358;2023-05-27T09:10:40;3.28;;;1.20;;
41568;SDS011;27283;52.504;13.358;2023-05-27T09:13:24;5.97;;;1.33;;
41568;SDS011;27283;52.504;13.358;2023-05-27T09:15:58;5.95;;;1.40;;
41568;SDS011;27283;52.504;13.358;2023-05-27T09:18:37;3.20;;;1.17;;
41568;SDS011;27283;52.504;13.358;2023-05-27T09:21:13;4.00;;;1.20;;
41568;SDS011;27283;52.504;13.358;2023-05-27T09:23:45;2.03;;;1.27;;
41568;SDS011;27283;52.504;13.358;2023-05-27T09:26:17;6.70;;;1.45;;
41568;SDS011;27283;52.504;13.358;2023-05-27T09:28:52;3.90;;;1.10;;
41568;SDS011;27283;52.504;13.358;2023-05-27T09:31:29;4.30;;;1.48;;
41568;SDS011;27283;52.504;13.358;2023-05-27T09:34:08;1.83;;;1.10;;
41568;SDS011;27283;52.504;13.358;2023-05-27T09:36:46;4.18;;;1.60;;
41568;SDS011;27283;52.504;13.358;2023-05-27T09:39:22;2.42;;;1.45;;
41568;SDS011;27283;52.504;13.358;2023-05-27T09:41:55;3.45;;;0.90;;
41568;SDS011;27283;52.504;13.358;2023-05-27T09:44:29;2.55;;;1.10;;
41568;SDS011;27283;52.504;13.358;2023-05-27T09:47:09;4.90;;;1.30;;
41568;SDS011;27283;52.504;13.358;2023-05-27T09:49:42;5.78;;;1.50;;
41568;SDS011;27283;52.504;13.358;2023-05-27T09:52:20;2.22;;;1.10;;
41568;SDS011;27283;52.504;13.358;2023-05-27T09:54:53;3.17;;;1.10;;
41568;SDS011;27283;52.504;13.358;2023-05-27T09:57:26;3.88;;;1.35;;
41568;SDS011;27283;52.504;13.358;2023-05-27T10:00:01;5.70;;;1.60;;
41568;SDS011;27283;52.504;13.358;2023-05-27T10:02:40;2.42;;;1.23;;
41568;SDS011;27283;52.504;13.358;2023-05-27T10:05:13;2.90;;;1.38;;
41568;SDS011;27283;52.504;13.358;2023-05-27T10:07:52;2.75;;;1.52;;
41568;SDS011;27283;52.504;13.358;2023-05-27T10:10:27;3.00;;;1.20;;
41568;SDS011;27283;52.504;13.358;2023-05-27T10:12:59;3.15;;;1.63;;
41568;SDS011;27283;52.504;13.358;2023-05-27T10:15:33;2.70;;;1.25;;
41568;SDS011;27283;52.504;13.358;2023-05-27T10:18:08;3.88;;;1.17;;
41568;SDS011;27283;52.504;13.358;2023-05-27T10:21:08;3.13;;;1.30;;
41568;SDS011;27283;52.504;13.358;2023-05-27T10:23:51;3.38;;;1.50;;
41568;SDS011;27283;52.504;13.358;2023-05-27T10:26:33;3.47;;;1.40;;
41568;SDS011;27283;52.504;13.358;2023-05-27T10:29:07;4.15;;;1.40;;
41568;SDS011;27283;52.504;13.358;2023-05-27T10:31:44;2.90;;;1.50;;
41568;SDS011;27283;52.504;13.358;2023-05-27T10:34:21;3.47;;;1.52;;
41568;SDS011;27283;52.504;13.358;2023-05-27T10:36:57;5.57;;;1.75;;
41568;SDS011;27283;52.504;13.358;2023-05-27T10:39:34;4.75;;;1.52;;
41568;SDS011;27283;52.504;13.358;2023-05-27T10:42:06;2.83;;;1.40;;
41568;SDS011;27283;52.504;13.358;2023-05-27T10:44:38;3.17;;;1.40;;
41568;SDS011;27283;52.504;13.358;2023-05-27T10:47:10;2.72;;;1.48;;
41568;SDS011;27283;52.504;13.358;2023-05-27T10:49:45;4.70;;;1.85;;
41568;SDS011;27283;52.504;13.358;2023-05-27T10:52:17;3.88;;;1.50;;
41568;SDS011;27283;52.504;13.358;2023-05-27T10:54:52;4.00;;;1.73;;
41568;SDS011;27283;52.504;13.358;2023-05-27T10:57:26;4.25;;;1.60;;
41568;SDS011;27283;52.504;13.358;2023-05-27T11:00:03;4.60;;;1.48;;
41568;SDS011;27283;52.504;13.358;2023-05-27T11:02:38;4.72;;;1.48;;
41568;SDS011;27283;52.504;13.358;2023-05-27T11:05:13;3.40;;;1.52;;
41568;SDS011;27283;52.504;13.358;2023-05-27T11:07:46;2.70;;;1.30;;
41568;SDS011;27283;52.504;13.358;2023-05-27T11:10:21;2.67;;;1.33;;
41568;SDS011;27283;52.504;13.358;2023-05-27T11:12:53;4.07;;;1.60;;
41568;SDS011;27283;52.504;13.358;2023-05-27T11:15:25;3.22;;;1.50;;
41568;SDS011;27283;52.504;13.358;2023-05-27T11:17:59;3.90;;;1.50;;
41568;SDS011;27283;52.504;13.358;2023-05-27T11:20:35;3.90;;;1.65;;
41568;SDS011;27283;52.504;13.358;2023-05-27T11:23:08;2.63;;;1.60;;
41568;SDS011;27283;52.504;13.358;2023-05-27T11:25:43;3.45;;;1.63;;
41568;SDS011;27283;52.504;13.358;2023-05-27T11:28:18;3.35;;;1.70;;
41568;SDS011;27283;52.504;13.358;2023-05-27T11:30:50;5.28;;;1.50;;
41568;SDS011;27283;52.504;13.358;2023-05-27T11:33:29;7.30;;;1.80;;
41568;SDS011;27283;52.504;13.358;2023-05-27T11:36:05;4.38;;;1.35;;
41568;SDS011;27283;52.504;13.358;2023-05-27T11:38:48;3.60;;;1.45;;
41568;SDS011;27283;52.504;13.358;2023-05-27T11:41:25;4.78;;;1.75;;
41568;SDS011;27283;52.504;13.358;2023-05-27T11:43:59;3.33;;;1.70;;
41568;SDS011;27283;52.504;13.358;2023-05-27T11:46:36;3.28;;;1.40;;
41568;SDS011;27283;52.504;13.358;2023-05-27T11:49:09;4.38;;;1.75;;
41568;SDS011;27283;52.504;13.358;2023-05-27T11:51:43;3.22;;;1.55;;
41568;SDS011;27283;52.504;13.358;2023-05-27T11:54:17;4.28;;;1.80;;
41568;SDS011;27283;52.504;13.358;2023-05-27T11:56:53;4.15;;;1.80;;
41568;SDS011;27283;52.504;13.358;2023-05-27T11:59:27;6.65;;;1.70;;
41568;SDS011;27283;52.504;13.358;2023-05-27T12:01:59;4.35;;;1.70;;
41568;SDS011;27283;52.504;13.358;2023-05-27T12:04:32;2.40;;;1.52;;
41568;SDS011;27283;52.504;13.358;2023-05-27T12:07:04;2.67;;;1.35;;
41568;SDS011;27283;52.504;13.358;2023-05-27T12:09:47;5.13;;;1.80;;
41568;SDS011;27283;52.504;13.358;2023-05-27T12:12:22;3.83;;;2.00;;
41568;SDS011;27283;52.504;13.358;2023-05-27T12:14:54;4.05;;;1.60;;
41568;SDS011;27283;52.504;13.358;2023-05-27T12:17:26;4.47;;;1.58;;
41568;SDS011;27283;52.504;13.358;2023-05-27T12:19:58;3.60;;;1.80;;
41568;SDS011;27283;52.504;13.358;2023-05-27T12:22:31;4.60;;;2.10;;
41568;SDS011;27283;52.504;13.358;2023-05-27T12:25:03;4.82;;;2.20;;
41568;SDS011;27283;52.504;13.358;2023-05-27T12:27:39;4.40;;;2.10;;
41568;SDS011;27283;52.504;13.358;2023-05-27T12:30:22;6.40;;;1.88;;
41568;SDS011;27283;52.504;13.358;2023-05-27T12:32:54;4.47;;;2.00;;
41568;SDS011;27283;52.504;13.358;2023-05-27T12:35:27;4.40;;;2.15;;
41568;SDS011;27283;52.504;13.358;2023-05-27T12:38:00;5.05;;;2.00;;
41568;SDS011;27283;52.504;13.358;2023-05-27T12:40:32;6.43;;;2.00;;
41568;SDS011;27283;52.504;13.358;2023-05-27T12:43:07;6.70;;;2.15;;
41568;SDS011;27283;52.504;13.358;2023-05-27T12:45:40;5.93;;;2.00;;
41568;SDS011;27283;52.504;13.358;2023-05-27T12:48:13;4.40;;;1.60;;
41568;SDS011;27283;52.504;13.358;2023-05-27T12:50:46;3.47;;;2.00;;
41568;SDS011;27283;52.504;13.358;2023-05-27T12:53:22;4.18;;;1.67;;
41568;SDS011;27283;52.504;13.358;2023-05-27T12:55:55;3.95;;;1.70;;
41568;SDS011;27283;52.504;13.358;2023-05-27T12:58:30;4.57;;;1.80;;
41568;SDS011;27283;52.504;13.358;2023-05-27T13:01:04;6.13;;;2.60;;
41568;SDS011;27283;52.504;13.358;2023-05-27T13:03:38;7.05;;;2.33;;
41568;SDS011;27283;52.504;13.358;2023-05-27T13:06:15;4.75;;;1.83;;
41568;SDS011;27283;52.504;13.358;2023-05-27T13:08:47;6.93;;;2.05;;
41568;SDS011;27283;52.504;13.358;2023-05-27T13:11:20;4.60;;;2.40;;
41568;SDS011;27283;52.504;13.358;2023-05-27T13:13:55;4.28;;;1.92;;
41568;SDS011;27283;52.504;13.358;2023-05-27T13:16:27;4.60;;;2.08;;
41568;SDS011;27283;52.504;13.358;2023-05-27T13:19:00;5.07;;;2.00;;
41568;SDS011;27283;52.504;13.358;2023-05-27T13:21:34;3.45;;;1.50;;
41568;SDS011;27283;52.504;13.358;2023-05-27T13:24:07;4.55;;;2.08;;
41568;SDS011;27283;52.504;13.358;2023-05-27T13:26:40;5.75;;;1.80;;
41568;SDS011;27283;52.504;13.358;2023-05-27T13:29:17;6.20;;;2.20;;
41568;SDS011;27283;52.504;13.358;2023-05-27T13:31:49;5.63;;;1.60;;
41568;SDS011;27283;52.504;13.358;2023-05-27T13:34:22;3.92;;;1.90;;
41568;SDS011;27283;52.504;13.358;2023-05-27T13:36:55;6.07;;;2.33;;
41568;SDS011;27283;52.504;13.358;2023-05-27T13:39:28;4.85;;;2.30;;
41568;SDS011;27283;52.504;13.358;2023-05-27T13:42:00;18.15;;;10.63;;
41568;SDS011;27283;52.504;13.358;2023-05-27T13:44:39;4.32;;;1.85;;
41568;SDS011;27283;52.504;13.358;2023-05-27T13:47:12;6.85;;;2.00;;
41568;SDS011;27283;52.504;13.358;2023-05-27T13:49:44;8.43;;;4.13;;
41568;SDS011;27283;52.504;13.358;2023-05-27T13:52:17;3.67;;;1.90;;
41568;SDS011;27283;52.504;13.358;2023-05-27T13:54:50;3.50;;;1.80;;
41568;SDS011;27283;52.504;13.358;2023-05-27T13:57:22;3.55;;;1.52;;
41568;SDS011;27283;52.504;13.358;2023-05-27T13:59:57;6.10;;;2.63;;
41568;SDS011;27283;52.504;13.358;2023-05-27T14:02:36;5.50;;;2.45;;
41568;SDS011;27283;52.504;13.358;2023-05-27T14:05:09;3.35;;;1.70;;
41568;SDS011;27283;52.504;13.358;2023-05-27T14:07:42;3.03;;;1.40;;
41568;SDS011;27283;52.504;13.358;2023-05-27T14:10:15;19.83;;;11.85;;
41568;SDS011;27283;52.504;13.358;2023-05-27T14:12:48;9.00;;;4.88;;
41568;SDS011;27283;52.504;13.358;2023-05-27T14:15:23;5.07;;;1.95;;
41568;SDS011;27283;52.504;13.358;2023-05-27T14:17:58;4.03;;;1.63;;
41568;SDS011;27283;52.504;13.358;2023-05-27T14:20:33;4.22;;;1.67;;
41568;SDS011;27283;52.504;13.358;2023-05-27T14:23:06;4.35;;;1.70;;
41568;SDS011;27283;52.504;13.358;2023-05-27T14:25:39;4.22;;;1.70;;
41568;SDS011;27283;52.504;13.358;2023-05-27T14:28:12;5.80;;;1.70;;
41568;SDS011;27283;52.504;13.358;2023-05-27T14:30:47;4.85;;;1.80;;
41568;SDS011;27283;52.504;13.358;2023-05-27T14:33:21;4.95;;;1.58;;
41568;SDS011;27283;52.504;13.358;2023-05-27T14:35:54;3.47;;;1.80;;
41568;SDS011;27283;52.504;13.358;2023-05-27T14:38:26;3.17;;;1.60;;
41568;SDS011;27283;52.504;13.358;2023-05-27T14:40:58;3.72;;;1.88;;
41568;SDS011;27283;52.504;13.358;2023-05-27T14:43:31;4.18;;;1.60;;
41568;SDS011;27283;52.504;13.358;2023-05-27T14:46:06;4.00;;;1.50;;
41568;SDS011;27283;52.504;13.358;2023-05-27T14:48:38;5.38;;;2.50;;
41568;SDS011;27283;52.504;13.358;2023-05-27T14:51:11;3.47;;;1.55;;
41568;SDS011;27283;52.504;13.358;2023-05-27T14:53:43;4.68;;;1.70;;
41568;SDS011;27283;52.504;13.358;2023-05-27T14:56:15;4.10;;;1.80;;
41568;SDS011;27283;52.504;13.358;2023-05-27T14:58:50;2.97;;;1.70;;
41568;SDS011;27283;52.504;13.358;2023-05-27T15:01:25;4.32;;;1.65;;
41568;SDS011;27283;52.504;13.358;2023-05-27T15:03:57;4.03;;;1.60;;
41568;SDS011;27283;52.504;13.358;2023-05-27T15:06:30;2.53;;;1.30;;
41568;SDS011;27283;52.504;13.358;2023-05-27T15:09:03;6.15;;;1.65;;